WetterOnline ( http://www.wetteronline.de )

Wetter aktuell Offenburg

Aktuelles Wetter: Lahr (156m)

6-stündlich | Neueste Meldungen
Ortszeit Temperatur Wetter
Mo, 21.01. 1:00 -0.7° C bedeckt
So, 20.01. 19:00 -1.5° C bedeckt
So, 20.01. 13:00 -1.4° C leichter Schneefall
So, 20.01. 7:00 -3.3° C bedeckt
So, 20.01. 1:00 -3.7° C bewölkt
Sa, 19.01. 19:00 -2.0° C wolkig
Sa, 19.01. 13:00 -0.9° C wolkenlos
Sa, 19.01. 7:00 -2.5° C fast wolkenlos
Ortszeit Temperatur Wetter
Mo, 21.01. 6:00 -2.2° C bedeckt
Mo, 21.01. 5:50 -2.2° C bedeckt
Mo, 21.01. 5:40 -2.1° C bedeckt
Mo, 21.01. 5:30 -2.0° C bedeckt
Mo, 21.01. 5:20 -2.0° C bedeckt
Mo, 21.01. 5:10 -1.9° C bedeckt
Mo, 21.01. 5:00 -1.8° C bedeckt
Mo, 21.01. 4:30 -1.5° C bedeckt
Mo, 21.01. 4:00 -1.4° C bedeckt
Mo, 21.01. 3:30 -1.2° C bedeckt
Mo, 21.01. 3:00 -1.0° C bedeckt
Ortszeit Relative Feuchte Sichtweite
Mo, 21.01. 1:00 86% 4.7 km
So, 20.01. 19:00 90% 3.7 km
So, 20.01. 13:00 88% 2.3 km
So, 20.01. 7:00 96% 3.9 km
So, 20.01. 1:00 91% 8 km
Sa, 19.01. 19:00 93% 8 km
Sa, 19.01. 13:00 92% 4.3 km
Sa, 19.01. 7:00 87% 14 km
Ortszeit Relative Feuchte Sichtweite
Mo, 21.01. 6:00 87% 4.1 km
Mo, 21.01. 5:50 87% -
Mo, 21.01. 5:40 87% -
Mo, 21.01. 5:30 86% 4.4 km
Mo, 21.01. 5:20 86% -
Mo, 21.01. 5:10 86% -
Mo, 21.01. 5:00 86% 4.3 km
Mo, 21.01. 4:30 87% 4.0 km
Mo, 21.01. 4:00 87% 4.1 km
Mo, 21.01. 3:30 88% 4.2 km
Mo, 21.01. 3:00 86% 4.4 km
Ortszeit Niederschlagsmenge Niederschlagsart
Mo, 21.01. 1:00 0.0 l/m2 in 6 Std. -
So, 20.01. 19:00 0.4 l/m2 in 12 Std. Schnee, Sprühregen
So, 20.01. 13:00 0.4 l/m2 in 6 Std. Schnee
So, 20.01. 7:00 2 l/m2 in 12 Std. Schnee
So, 20.01. 1:00 0.0 l/m2 in 6 Std. -
Sa, 19.01. 19:00 0.0 l/m2 in 12 Std. -
Sa, 19.01. 13:00 0.0 l/m2 in 6 Std. -
Sa, 19.01. 7:00 0.0 l/m2 in 12 Std. -
Ortszeit Niederschlagsmenge Niederschlagsart
Mo, 21.01. 6:00 0.0 l/m2 in 1 Std. -
Mo, 21.01. 5:50 keine Meldung -
Mo, 21.01. 5:40 keine Meldung -
Mo, 21.01. 5:30 0.0 l/m2 in 1 Std. -
Mo, 21.01. 5:20 keine Meldung -
Mo, 21.01. 5:10 keine Meldung -
Mo, 21.01. 5:00 0.0 l/m2 in 1 Std. -
Mo, 21.01. 4:30 0.0 l/m2 in 1 Std. -
Mo, 21.01. 4:00 0.0 l/m2 in 1 Std. -
Mo, 21.01. 3:30 0.0 l/m2 in 1 Std. -
Mo, 21.01. 3:00 0.0 l/m2 in 1 Std. -
Ortszeit Stärke Spitze Richtung
km/h Bft. km/h Grad Sektor
Mo, 21.01. 1:00 7 2 14 360° N
So, 20.01. 19:00 9 2 17 10° N
So, 20.01. 13:00 7 2 9 10° N
So, 20.01. 7:00 4 1 7 310° NW
So, 20.01. 1:00 4 1 14 180° S
Sa, 19.01. 19:00 0 0 11 - -
Sa, 19.01. 13:00 6 1 9 50° NO
Sa, 19.01. 7:00 6 1 9 50° NO
Ortszeit Stärke Spitze Richtung
km/h Bft. km/h Grad Sektor
Mo, 21.01. 6:00 14 3 18 360° N
Mo, 21.01. 5:50 14 3 - 360° N
Mo, 21.01. 5:40 14 3 - 360° N
Mo, 21.01. 5:30 13 3 17 360° N
Mo, 21.01. 5:20 13 3 - 360° N
Mo, 21.01. 5:10 13 3 - 360° N
Mo, 21.01. 5:00 14 3 18 360° N
Mo, 21.01. 4:30 13 3 19 10° N
Mo, 21.01. 4:00 14 3 18 10° N
Mo, 21.01. 3:30 13 3 17 10° N
Mo, 21.01. 3:00 7 2 11 360° N
Ortszeit Untergrenze Bedeckung Gattung
total tief tief mittel hoch
Mo, 21.01. 1:00 480 m 8/8 8/8 - - -
So, 20.01. 19:00 360 m 8/8 8/8 - - -
So, 20.01. 13:00 180 m 7/8 7/8 - - -
So, 20.01. 7:00 450 m 8/8 8/8 - - -
So, 20.01. 1:00 2700 m 8/8 5/8 - - -
Sa, 19.01. 19:00 7500 m 7/8 0/8 - - -
Sa, 19.01. 13:00 - 0/8 0/8 - - -
Sa, 19.01. 7:00 5100 m 1/8 1/8 - - -
Ortszeit Bedeckungsgrad in Achtel und Wolkenuntergrenze
Mo, 21.01. 6:00 8(270m)
Mo, 21.01. 5:50 8(270m)
Mo, 21.01. 5:40 8(300m)
Mo, 21.01. 5:30 8(300m)
Mo, 21.01. 5:20 8(300m)
Mo, 21.01. 5:10 7(330m) 8(450m)
Mo, 21.01. 5:00 5(300m) 8(450m) 8(690m)
Mo, 21.01. 4:30 7(480m) 8(750m)
Mo, 21.01. 4:00 7(480m) 8(750m)
Mo, 21.01. 3:30 3(480m) 8(750m)
Mo, 21.01. 3:00 8(480m) 8(750m)
Ortszeit Luftdruck NN (hPa) Tendenz (hPa in 3 Std.)
Mo, 21.01. 1:00 1020 + 1,1
So, 20.01. 19:00 1018 + 1,6
So, 20.01. 13:00 1017 + 0,8
So, 20.01. 7:00 1014 - 0,4
So, 20.01. 1:00 1015 - 0,1
Sa, 19.01. 19:00 1015 - 0,3
Sa, 19.01. 13:00 1017 - 1,0
Sa, 19.01. 7:00 1018 - 0,6
Ortszeit Luftdruck NN (hPa) Tendenz (hPa in 3 Std.)
Mo, 21.01. 6:00 1021 + 0,3
Mo, 21.01. 5:50 1021 keine Meldung
Mo, 21.01. 5:40 1021 keine Meldung
Mo, 21.01. 5:30 1021 + 0,4
Mo, 21.01. 5:20 1021 keine Meldung
Mo, 21.01. 5:10 1021 keine Meldung
Mo, 21.01. 5:00 1021 + 0,4
Mo, 21.01. 4:30 1021 + 0,4
Mo, 21.01. 4:00 1021 + 0,3
Mo, 21.01. 3:30 1021 + 0,5
Mo, 21.01. 3:00 1021 + 0,7
Ortszeit Schneehöhe (cm)
Mo, 21.01. 1:00 1
So, 20.01. 19:00 1
So, 20.01. 13:00 2
So, 20.01. 7:00 3
So, 20.01. 1:00 0
Sa, 19.01. 19:00 0
Sa, 19.01. 13:00 0
Sa, 19.01. 7:00 0
Ortszeit Schneehöhe (cm)
Mo, 21.01. 6:00 1
Mo, 21.01. 5:50 1
Mo, 21.01. 5:40 1
Mo, 21.01. 5:30 1
Mo, 21.01. 5:20 1
Mo, 21.01. 5:10 1
Mo, 21.01. 5:00 1
Mo, 21.01. 4:30 1
Mo, 21.01. 4:00 1
Mo, 21.01. 3:30 1
Mo, 21.01. 3:00 1
Link zu dieser Seite / Seite empfehlen

Das Wetter in ...